sensor_id;sensor_type;location;lat;lon;timestamp;pressure;altitude;pressure_sealevel;temperature;humidity
24788;BME280;12883;52.662;5.196;2022-12-10T00:01:40;100796.75;;;1.91;100.00
24788;BME280;12883;52.662;5.196;2022-12-10T00:04:06;100788.34;;;1.87;100.00
24788;BME280;12883;52.662;5.196;2022-12-10T00:06:33;100771.16;;;1.85;100.00
24788;BME280;12883;52.662;5.196;2022-12-10T00:08:59;100786.38;;;1.99;100.00
24788;BME280;12883;52.662;5.196;2022-12-10T00:11:25;100790.50;;;2.01;100.00
24788;BME280;12883;52.662;5.196;2022-12-10T00:13:51;100783.19;;;2.05;100.00
24788;BME280;12883;52.662;5.196;2022-12-10T00:16:19;100776.06;;;1.97;100.00
24788;BME280;12883;52.662;5.196;2022-12-10T00:18:46;100794.84;;;2.10;100.00
24788;BME280;12883;52.662;5.196;2022-12-10T00:21:17;100778.56;;;2.16;100.00
24788;BME280;12883;52.662;5.196;2022-12-10T00:23:43;100778.19;;;2.11;100.00
24788;BME280;12883;52.662;5.196;2022-12-10T00:26:13;100787.84;;;2.11;100.00
24788;BME280;12883;52.662;5.196;2022-12-10T00:28:39;100770.31;;;1.94;100.00
24788;BME280;12883;52.662;5.196;2022-12-10T00:31:11;100786.75;;;2.04;100.00
24788;BME280;12883;52.662;5.196;2022-12-10T00:33:38;100788.50;;;2.13;100.00
24788;BME280;12883;52.662;5.196;2022-12-10T00:36:06;100786.75;;;2.04;100.00
24788;BME280;12883;52.662;5.196;2022-12-10T00:38:32;100767.97;;;1.91;100.00
24788;BME280;12883;52.662;5.196;2022-12-10T00:40:57;100772.47;;;1.98;100.00
24788;BME280;12883;52.662;5.196;2022-12-10T00:43:22;100789.88;;;1.90;100.00
24788;BME280;12883;52.662;5.196;2022-12-10T00:45:48;100776.34;;;1.94;100.00
24788;BME280;12883;52.662;5.196;2022-12-10T00:48:13;100780.38;;;1.89;100.00
24788;BME280;12883;52.662;5.196;2022-12-10T00:50:38;100772.03;;;1.76;100.00
24788;BME280;12883;52.662;5.196;2022-12-10T00:53:04;100788.78;;;1.83;100.00
24788;BME280;12883;52.662;5.196;2022-12-10T00:55:29;100742.94;;;1.52;100.00
24788;BME280;12883;52.662;5.196;2022-12-10T00:57:54;100798.72;;;1.79;100.00
24788;BME280;12883;52.662;5.196;2022-12-10T01:00:20;100799.81;;;1.77;100.00
24788;BME280;12883;52.662;5.196;2022-12-10T01:02:45;100772.41;;;1.54;100.00
24788;BME280;12883;52.662;5.196;2022-12-10T01:05:10;100804.91;;;1.78;100.00
24788;BME280;12883;52.662;5.196;2022-12-10T01:07:36;100804.91;;;1.78;100.00
24788;BME280;12883;52.662;5.196;2022-12-10T01:10:02;100800.91;;;1.84;100.00
24788;BME280;12883;52.662;5.196;2022-12-10T01:12:27;100813.28;;;1.91;100.00
24788;BME280;12883;52.662;5.196;2022-12-10T01:14:53;100809.56;;;1.94;100.00
24788;BME280;12883;52.662;5.196;2022-12-10T01:17:18;100817.50;;;2.02;100.00
24788;BME280;12883;52.662;5.196;2022-12-10T01:19:43;100812.41;;;2.00;100.00
24788;BME280;12883;52.662;5.196;2022-12-10T01:22:09;100814.31;;;2.08;100.00
24788;BME280;12883;52.662;5.196;2022-12-10T01:24:34;100819.53;;;2.08;100.00
24788;BME280;12883;52.662;5.196;2022-12-10T01:27:00;100795.66;;;1.84;100.00
24788;BME280;12883;52.662;5.196;2022-12-10T01:29:25;100814.97;;;2.10;100.00
24788;BME280;12883;52.662;5.196;2022-12-10T01:31:54;100809.59;;;2.11;100.00
24788;BME280;12883;52.662;5.196;2022-12-10T01:34:19;100797.72;;;2.17;100.00
24788;BME280;12883;52.662;5.196;2022-12-10T01:36:48;100811.53;;;2.09;100.00
24788;BME280;12883;52.662;5.196;2022-12-10T01:39:16;100796.56;;;2.02;100.00
24788;BME280;12883;52.662;5.196;2022-12-10T01:41:54;100813.91;;;2.03;100.00
24788;BME280;12883;52.662;5.196;2022-12-10T01:46:47;100819.53;;;2.08;100.00
24788;BME280;12883;52.662;5.196;2022-12-10T01:49:26;100831.06;;;2.15;100.00
24788;BME280;12883;52.662;5.196;2022-12-10T01:51:54;100812.63;;;2.07;100.00
24788;BME280;12883;52.662;5.196;2022-12-10T01:54:21;100823.75;;;2.18;100.00
24788;BME280;12883;52.662;5.196;2022-12-10T01:56:51;100834.06;;;2.20;100.00
24788;BME280;12883;52.662;5.196;2022-12-10T01:59:19;100826.72;;;2.23;100.00
24788;BME280;12883;52.662;5.196;2022-12-10T02:07:37;100836.66;;;2.20;100.00
24788;BME280;12883;52.662;5.196;2022-12-10T02:10:29;100818.75;;;2.25;100.00
24788;BME280;12883;52.662;5.196;2022-12-10T02:13:06;100826.81;;;2.31;100.00
24788;BME280;12883;52.662;5.196;2022-12-10T02:15:42;100810.41;;;2.12;100.00
24788;BME280;12883;52.662;5.196;2022-12-10T02:18:20;100831.75;;;2.17;100.00
24788;BME280;12883;52.662;5.196;2022-12-10T02:20:52;100837.47;;;2.30;100.00
24788;BME280;12883;52.662;5.196;2022-12-10T02:23:33;100845.91;;;2.24;100.00
24788;BME280;12883;52.662;5.196;2022-12-10T02:26:11;100838.75;;;2.16;100.00
24788;BME280;12883;52.662;5.196;2022-12-10T02:31:19;100840.94;;;2.21;100.00
24788;BME280;12883;52.662;5.196;2022-12-10T02:33:50;100839.59;;;2.17;100.00
24788;BME280;12883;52.662;5.196;2022-12-10T02:36:18;100832.72;;;2.16;100.00
24788;BME280;12883;52.662;5.196;2022-12-10T02:38:47;100829.78;;;2.19;100.00
24788;BME280;12883;52.662;5.196;2022-12-10T02:41:18;100840.41;;;2.17;100.00
24788;BME280;12883;52.662;5.196;2022-12-10T02:43:52;100837.94;;;2.16;100.00
24788;BME280;12883;52.662;5.196;2022-12-10T02:46:18;100787.06;;;2.01;100.00
24788;BME280;12883;52.662;5.196;2022-12-10T02:48:46;100832.50;;;2.27;100.00
24788;BME280;12883;52.662;5.196;2022-12-10T02:51:12;100828.53;;;2.23;100.00
24788;BME280;12883;52.662;5.196;2022-12-10T02:53:43;100834.44;;;2.25;100.00
24788;BME280;12883;52.662;5.196;2022-12-10T02:56:54;100831.84;;;2.25;100.00
24788;BME280;12883;52.662;5.196;2022-12-10T02:59:13;100818.31;;;2.29;100.00
24788;BME280;12883;52.662;5.196;2022-12-10T03:01:48;100819.47;;;2.17;100.00
24788;BME280;12883;52.662;5.196;2022-12-10T03:04:41;100816.44;;;2.22;100.00
24788;BME280;12883;52.662;5.196;2022-12-10T03:07:16;100817.25;;;2.22;100.00
24788;BME280;12883;52.662;5.196;2022-12-10T03:09:55;100813.66;;;2.23;100.00
24788;BME280;12883;52.662;5.196;2022-12-10T03:12:35;100818.34;;;2.20;100.00
24788;BME280;12883;52.662;5.196;2022-12-10T03:15:05;100812.84;;;2.23;100.00
24788;BME280;12883;52.662;5.196;2022-12-10T03:17:32;100814.50;;;2.24;100.00
24788;BME280;12883;52.662;5.196;2022-12-10T03:19:58;100817.53;;;2.19;100.00
24788;BME280;12883;52.662;5.196;2022-12-10T03:22:26;100802.56;;;2.12;100.00
24788;BME280;12883;52.662;5.196;2022-12-10T03:24:53;100824.66;;;2.27;100.00
24788;BME280;12883;52.662;5.196;2022-12-10T03:27:20;100768.81;;;1.91;100.00
24788;BME280;12883;52.662;5.196;2022-12-10T03:29:50;100820.97;;;2.20;100.00
24788;BME280;12883;52.662;5.196;2022-12-10T03:32:18;100825.53;;;2.18;100.00
24788;BME280;12883;52.662;5.196;2022-12-10T03:34:45;100838.91;;;2.15;100.00
24788;BME280;12883;52.662;5.196;2022-12-10T03:37:12;100818.34;;;2.20;100.00
24788;BME280;12883;52.662;5.196;2022-12-10T03:39:38;100816.72;;;2.19;100.00
24788;BME280;12883;52.662;5.196;2022-12-10T03:42:05;100827.63;;;2.14;100.00
24788;BME280;12883;52.662;5.196;2022-12-10T03:44:32;100787.13;;;1.91;100.00
24788;BME280;12883;52.662;5.196;2022-12-10T03:47:00;100829.53;;;2.22;100.00
24788;BME280;12883;52.662;5.196;2022-12-10T03:49:25;100834.84;;;2.30;100.00
24788;BME280;12883;52.662;5.196;2022-12-10T03:51:51;100827.97;;;2.29;100.00
24788;BME280;12883;52.662;5.196;2022-12-10T03:54:16;100825.34;;;2.29;100.00
24788;BME280;12883;52.662;5.196;2022-12-10T03:56:41;100821.66;;;2.22;100.00
24788;BME280;12883;52.662;5.196;2022-12-10T03:59:07;100796.41;;;2.03;100.00
24788;BME280;12883;52.662;5.196;2022-12-10T04:01:32;100820.38;;;2.26;100.00
24788;BME280;12883;52.662;5.196;2022-12-10T04:03:58;100821.91;;;2.28;100.00
24788;BME280;12883;52.662;5.196;2022-12-10T04:06:23;100824.66;;;2.27;100.00
24788;BME280;12883;52.662;5.196;2022-12-10T04:08:49;100817.09;;;2.24;100.00
24788;BME280;12883;52.662;5.196;2022-12-10T04:11:15;100806.31;;;2.27;100.00
24788;BME280;12883;52.662;5.196;2022-12-10T04:13:41;100832.38;;;2.28;100.00
24788;BME280;12883;52.662;5.196;2022-12-10T04:16:25;100822.72;;;2.29;100.00
24788;BME280;12883;52.662;5.196;2022-12-10T04:18:55;100819.66;;;2.33;100.00
24788;BME280;12883;52.662;5.196;2022-12-10T04:21:21;100814.13;;;2.36;100.00
24788;BME280;12883;52.662;5.196;2022-12-10T04:24:08;100762.16;;;1.97;100.00
24788;BME280;12883;52.662;5.196;2022-12-10T04:26:52;100825.44;;;2.37;100.00
24788;BME280;12883;52.662;5.196;2022-12-10T04:29:23;100828.91;;;2.28;100.00
24788;BME280;12883;52.662;5.196;2022-12-10T04:31:49;100828.53;;;2.23;100.00
24788;BME280;12883;52.662;5.196;2022-12-10T04:34:14;100835.69;;;2.21;100.00
24788;BME280;12883;52.662;5.196;2022-12-10T04:36:39;100832.50;;;2.27;100.00
24788;BME280;12883;52.662;5.196;2022-12-10T04:39:05;100827.72;;;2.22;100.00
24788;BME280;12883;52.662;5.196;2022-12-10T04:41:30;100832.38;;;2.28;100.00
24788;BME280;12883;52.662;5.196;2022-12-10T04:43:56;100828.50;;;2.32;100.00
24788;BME280;12883;52.662;5.196;2022-12-10T04:46:21;100835.56;;;2.22;100.00
24788;BME280;12883;52.662;5.196;2022-12-10T04:48:46;100829.34;;;2.23;100.00
24788;BME280;12883;52.662;5.196;2022-12-10T04:51:12;100814.41;;;2.16;100.00
24788;BME280;12883;52.662;5.196;2022-12-10T04:53:37;100826.59;;;2.25;100.00
24788;BME280;12883;52.662;5.196;2022-12-10T04:56:03;100826.09;;;2.12;100.00
24788;BME280;12883;52.662;5.196;2022-12-10T04:58:30;100832.75;;;2.06;100.00
24788;BME280;12883;52.662;5.196;2022-12-10T05:01:07;100833.81;;;2.13;100.00
24788;BME280;12883;52.662;5.196;2022-12-10T05:03:34;100782.09;;;1.98;100.00
24788;BME280;12883;52.662;5.196;2022-12-10T05:06:08;100836.84;;;2.18;100.00
24788;BME280;12883;52.662;5.196;2022-12-10T05:08:35;100828.53;;;2.23;100.00
24788;BME280;12883;52.662;5.196;2022-12-10T05:11:03;100814.09;;;2.19;100.00
24788;BME280;12883;52.662;5.196;2022-12-10T05:13:28;100805.44;;;2.18;100.00
24788;BME280;12883;52.662;5.196;2022-12-10T05:15:54;100814.94;;;2.19;100.00
24788;BME280;12883;52.662;5.196;2022-12-10T05:18:19;100816.56;;;2.20;100.00
24788;BME280;12883;52.662;5.196;2022-12-10T05:20:45;100821.66;;;2.22;100.00
24788;BME280;12883;52.662;5.196;2022-12-10T05:23:10;100817.53;;;2.19;100.00
24788;BME280;12883;52.662;5.196;2022-12-10T05:26:00;100823.63;;;2.10;100.00
24788;BME280;12883;52.662;5.196;2022-12-10T05:28:26;100833.38;;;2.18;100.00
24788;BME280;12883;52.662;5.196;2022-12-10T05:30:52;100832.13;;;2.22;100.00
24788;BME280;12883;52.662;5.196;2022-12-10T05:33:18;100818.13;;;2.13;100.00
24788;BME280;12883;52.662;5.196;2022-12-10T05:35:43;100839.72;;;2.15;100.00
24788;BME280;12883;52.662;5.196;2022-12-10T05:38:09;100839.72;;;2.15;100.00
24788;BME280;12883;52.662;5.196;2022-12-10T05:40:38;100836.09;;;2.26;100.00
24788;BME280;12883;52.662;5.196;2022-12-10T05:43:03;100820.59;;;2.15;100.00
24788;BME280;12883;52.662;5.196;2022-12-10T05:45:28;100831.44;;;2.20;100.00
24788;BME280;12883;52.662;5.196;2022-12-10T05:47:56;100832.13;;;2.22;100.00
24788;BME280;12883;52.662;5.196;2022-12-10T05:50:21;100826.91;;;2.22;100.00
24788;BME280;12883;52.662;5.196;2022-12-10T05:52:46;100837.06;;;2.25;100.00
24788;BME280;12883;52.662;5.196;2022-12-10T05:55:12;100831.59;;;2.18;100.00
24788;BME280;12883;52.662;5.196;2022-12-10T05:57:37;100834.06;;;2.20;100.00
24788;BME280;12883;52.662;5.196;2022-12-10T06:00:04;100839.81;;;2.23;100.00
24788;BME280;12883;52.662;5.196;2022-12-10T06:02:32;100840.69;;;2.14;100.00
24788;BME280;12883;52.662;5.196;2022-12-10T06:04:57;100848.09;;;2.19;100.00
24788;BME280;12883;52.662;5.196;2022-12-10T06:07:23;100843.41;;;2.22;100.00
24788;BME280;12883;52.662;5.196;2022-12-10T06:09:48;100852.00;;;2.15;100.00
24788;BME280;12883;52.662;5.196;2022-12-10T06:12:13;100838.53;;;2.10;100.00
24788;BME280;12883;52.662;5.196;2022-12-10T06:14:39;100848.41;;;2.16;100.00
24788;BME280;12883;52.662;5.196;2022-12-10T06:17:04;100850.06;;;2.17;100.00
24788;BME280;12883;52.662;5.196;2022-12-10T06:19:29;100853.66;;;2.16;100.00
24788;BME280;12883;52.662;5.196;2022-12-10T06:21:55;100861.78;;;2.13;100.00
24788;BME280;12883;52.662;5.196;2022-12-10T06:24:20;100862.59;;;2.13;100.00
24788;BME280;12883;52.662;5.196;2022-12-10T06:26:45;100849.84;;;2.01;100.00
24788;BME280;12883;52.662;5.196;2022-12-10T06:29:11;100857.28;;;2.05;100.00
24788;BME280;12883;52.662;5.196;2022-12-10T06:31:36;100863.81;;;2.19;100.00
24788;BME280;12883;52.662;5.196;2022-12-10T06:34:01;100862.16;;;2.18;100.00
24788;BME280;12883;52.662;5.196;2022-12-10T06:36:27;100850.41;;;2.04;100.00
24788;BME280;12883;52.662;5.196;2022-12-10T06:38:52;100814.94;;;1.83;100.00
24788;BME280;12883;52.662;5.196;2022-12-10T06:41:18;100863.03;;;2.09;100.00
24788;BME280;12883;52.662;5.196;2022-12-10T06:43:46;100832.56;;;1.90;100.00
24788;BME280;12883;52.662;5.196;2022-12-10T06:46:13;100870.72;;;2.10;100.00
24788;BME280;12883;52.662;5.196;2022-12-10T06:48:40;100859.34;;;2.02;100.00
24788;BME280;12883;52.662;5.196;2022-12-10T06:51:06;100876.22;;;2.17;100.00
24788;BME280;12883;52.662;5.196;2022-12-10T06:53:33;100875.81;;;2.12;100.00
24788;BME280;12883;52.662;5.196;2022-12-10T06:56:00;100870.69;;;2.20;100.00
24788;BME280;12883;52.662;5.196;2022-12-10T06:58:30;100879.28;;;2.12;100.00
24788;BME280;12883;52.662;5.196;2022-12-10T07:01:06;100888.34;;;2.18;100.00
24788;BME280;12883;52.662;5.196;2022-12-10T07:03:32;100874.47;;;2.08;100.00
24788;BME280;12883;52.662;5.196;2022-12-10T07:05:59;100882.88;;;2.11;100.00
24788;BME280;12883;52.662;5.196;2022-12-10T07:08:24;100878.47;;;2.02;100.00
24788;BME280;12883;52.662;5.196;2022-12-10T07:10:50;100882.00;;;2.20;100.00
24788;BME280;12883;52.662;5.196;2022-12-10T07:13:15;100888.50;;;2.07;100.00
24788;BME280;12883;52.662;5.196;2022-12-10T07:15:40;100881.47;;;2.17;100.00
24788;BME280;12883;52.662;5.196;2022-12-10T07:18:06;100889.31;;;2.17;100.00
24788;BME280;12883;52.662;5.196;2022-12-10T07:20:31;100894.13;;;2.12;100.00
24788;BME280;12883;52.662;5.196;2022-12-10T07:22:56;100887.25;;;2.11;100.00
24788;BME280;12883;52.662;5.196;2022-12-10T07:25:21;100896.34;;;2.07;100.00
24788;BME280;12883;52.662;5.196;2022-12-10T07:27:47;100892.50;;;2.11;100.00
24788;BME280;12883;52.662;5.196;2022-12-10T07:30:12;100906.16;;;2.05;100.00
24788;BME280;12883;52.662;5.196;2022-12-10T07:32:38;100900.91;;;2.05;100.00
24788;BME280;12883;52.662;5.196;2022-12-10T07:35:03;100912.34;;;2.04;100.00
24788;BME280;12883;52.662;5.196;2022-12-10T07:37:29;100901.88;;;2.04;100.00
24788;BME280;12883;52.662;5.196;2022-12-10T07:39:54;100907.13;;;2.04;100.00
24788;BME280;12883;52.662;5.196;2022-12-10T07:42:19;100904.63;;;2.02;100.00
24788;BME280;12883;52.662;5.196;2022-12-10T07:44:45;100906.56;;;2.10;100.00
24788;BME280;12883;52.662;5.196;2022-12-10T07:47:10;100865.31;;;1.85;100.00
24788;BME280;12883;52.662;5.196;2022-12-10T07:49:35;100913.19;;;2.04;100.00
24788;BME280;12883;52.662;5.196;2022-12-10T07:52:01;100912.06;;;2.07;100.00
24788;BME280;12883;52.662;5.196;2022-12-10T07:54:26;100910.56;;;2.04;100.00
24788;BME280;12883;52.662;5.196;2022-12-10T07:56:51;100898.09;;;1.89;100.00
24788;BME280;12883;52.662;5.196;2022-12-10T07:59:17;100910.72;;;2.03;100.00
24788;BME280;12883;52.662;5.196;2022-12-10T08:01:42;100921.88;;;1.95;100.00
24788;BME280;12883;52.662;5.196;2022-12-10T08:04:08;100918.16;;;1.98;100.00
24788;BME280;12883;52.662;5.196;2022-12-10T08:06:33;100914.56;;;1.99;100.00
24788;BME280;12883;52.662;5.196;2022-12-10T08:09:00;100924.75;;;2.02;100.00
24788;BME280;12883;52.662;5.196;2022-12-10T08:11:26;100924.88;;;2.10;100.00
24788;BME280;12883;52.662;5.196;2022-12-10T08:13:52;100887.09;;;1.76;100.00
24788;BME280;12883;52.662;5.196;2022-12-10T08:16:20;100933.84;;;1.98;100.00
24788;BME280;12883;52.662;5.196;2022-12-10T08:18:48;100944.31;;;1.98;100.00
24788;BME280;12883;52.662;5.196;2022-12-10T08:21:16;100918.03;;;1.90;100.00
24788;BME280;12883;52.662;5.196;2022-12-10T08:23:42;100935.50;;;1.89;100.00
24788;BME280;12883;52.662;5.196;2022-12-10T08:26:10;100933.31;;;1.94;100.00
24788;BME280;12883;52.662;5.196;2022-12-10T08:28:36;100933.28;;;2.04;100.00
24788;BME280;12883;52.662;5.196;2022-12-10T08:31:02;100938.28;;;1.97;100.00
24788;BME280;12883;52.662;5.196;2022-12-10T08:33:28;100922.06;;;1.84;100.00
24788;BME280;12883;52.662;5.196;2022-12-10T08:35:57;100934.78;;;2.06;100.00
24788;BME280;12883;52.662;5.196;2022-12-10T08:38:23;100933.94;;;2.15;100.00
24788;BME280;12883;52.662;5.196;2022-12-10T08:40:48;100949.09;;;2.12;100.00
24788;BME280;12883;52.662;5.196;2022-12-10T08:58:14;100966.59;;;2.11;100.00
24788;BME280;12883;52.662;5.196;2022-12-10T09:00:39;100960.22;;;2.14;100.00
24788;BME280;12883;52.662;5.196;2022-12-10T09:03:04;100966.00;;;2.27;100.00
24788;BME280;12883;52.662;5.196;2022-12-10T09:05:30;100944.84;;;2.11;100.00
24788;BME280;12883;52.662;5.196;2022-12-10T09:07:55;100975.66;;;2.17;100.00
24788;BME280;12883;52.662;5.196;2022-12-10T09:10:21;100976.47;;;2.17;100.00
24788;BME280;12883;52.662;5.196;2022-12-10T09:12:47;100986.13;;;2.17;100.00
24788;BME280;12883;52.662;5.196;2022-12-10T09:15:12;100981.88;;;2.16;100.00
24788;BME280;12883;52.662;5.196;2022-12-10T09:17:37;100985.59;;;2.23;100.00
24788;BME280;12883;52.662;5.196;2022-12-10T09:20:03;101002.94;;;2.24;100.00
24788;BME280;12883;52.662;5.196;2022-12-10T09:22:29;100987.22;;;2.24;100.00
24788;BME280;12883;52.662;5.196;2022-12-10T09:24:55;100987.63;;;2.29;100.00
24788;BME280;12883;52.662;5.196;2022-12-10T09:27:20;100903.88;;;1.73;100.00
24788;BME280;12883;52.662;5.196;2022-12-10T09:29:46;100989.53;;;2.27;100.00
24788;BME280;12883;52.662;5.196;2022-12-10T09:32:11;100981.31;;;2.22;100.00
24788;BME280;12883;52.662;5.196;2022-12-10T09:34:36;100994.53;;;2.20;100.00
24788;BME280;12883;52.662;5.196;2022-12-10T09:37:02;100993.53;;;2.31;100.00
24788;BME280;12883;52.662;5.196;2022-12-10T09:39:27;100984.16;;;2.38;100.00
24788;BME280;12883;52.662;5.196;2022-12-10T09:44:56;100989.53;;;2.36;100.00
24788;BME280;12883;52.662;5.196;2022-12-10T09:47:33;100953.91;;;2.07;100.00
24788;BME280;12883;52.662;5.196;2022-12-10T09:50:18;100984.97;;;2.38;100.00
24788;BME280;12883;52.662;5.196;2022-12-10T09:52:46;101002.91;;;2.33;100.00
24788;BME280;12883;52.662;5.196;2022-12-10T09:55:18;100998.25;;;2.27;100.00
24788;BME280;12883;52.662;5.196;2022-12-10T09:57:46;100999.84;;;2.38;100.00
24788;BME280;12883;52.662;5.196;2022-12-10T10:00:25;100997.91;;;2.40;100.00
24788;BME280;12883;52.662;5.196;2022-12-10T10:02:56;101000.56;;;2.30;100.00
24788;BME280;12883;52.662;5.196;2022-12-10T10:05:33;101001.81;;;2.36;100.00
24788;BME280;12883;52.662;5.196;2022-12-10T10:08:02;101002.03;;;2.42;100.00
24788;BME280;12883;52.662;5.196;2022-12-10T10:10:35;101006.44;;;2.42;100.00
24788;BME280;12883;52.662;5.196;2022-12-10T10:15:35;101017.88;;;2.41;100.00
24788;BME280;12883;52.662;5.196;2022-12-10T10:18:08;100994.88;;;2.35;100.00
24788;BME280;12883;52.662;5.196;2022-12-10T10:20:37;101013.06;;;2.46;100.00
24788;BME280;12883;52.662;5.196;2022-12-10T10:23:02;100959.13;;;2.16;100.00
24788;BME280;12883;52.662;5.196;2022-12-10T10:25:28;101018.41;;;2.54;100.00
24788;BME280;12883;52.662;5.196;2022-12-10T10:27:54;101022.41;;;2.58;100.00
24788;BME280;12883;52.662;5.196;2022-12-10T10:30:22;101024.06;;;2.59;100.00
24788;BME280;12883;52.662;5.196;2022-12-10T10:32:53;101031.22;;;2.57;100.00
24788;BME280;12883;52.662;5.196;2022-12-10T10:35:33;101025.28;;;2.55;100.00
24788;BME280;12883;52.662;5.196;2022-12-10T10:38:06;101020.75;;;2.57;100.00
24788;BME280;12883;52.662;5.196;2022-12-10T10:40:45;101025.28;;;2.55;100.00
24788;BME280;12883;52.662;5.196;2022-12-10T10:43:30;101027.34;;;2.61;100.00
24788;BME280;12883;52.662;5.196;2022-12-10T10:46:02;101023.75;;;2.62;100.00
24788;BME280;12883;52.662;5.196;2022-12-10T10:48:30;101024.59;;;2.62;100.00
24788;BME280;12883;52.662;5.196;2022-12-10T10:56:19;101020.19;;;2.63;100.00
24788;BME280;12883;52.662;5.196;2022-12-10T10:59:30;101023.47;;;2.65;100.00
24788;BME280;12883;52.662;5.196;2022-12-10T11:04:50;101027.56;;;2.77;100.00
24788;BME280;12883;52.662;5.196;2022-12-10T11:09:48;101028.72;;;2.65;100.00
24788;BME280;12883;52.662;5.196;2022-12-10T11:12:29;101000.81;;;2.46;100.00
24788;BME280;12883;52.662;5.196;2022-12-10T11:14:57;101019.88;;;2.66;100.00
24788;BME280;12883;52.662;5.196;2022-12-10T11:17:25;101030.22;;;2.67;100.00
24788;BME280;12883;52.662;5.196;2022-12-10T11:20:09;101025.44;;;2.63;100.00
24788;BME280;12883;52.662;5.196;2022-12-10T11:22:48;101030.81;;;2.61;100.00
24788;BME280;12883;52.662;5.196;2022-12-10T11:25:14;101028.72;;;2.65;100.00
24788;BME280;12883;52.662;5.196;2022-12-10T11:30:17;101017.72;;;2.52;100.00
24788;BME280;12883;52.662;5.196;2022-12-10T11:33:06;101015.22;;;2.60;100.00
24788;BME280;12883;52.662;5.196;2022-12-10T11:38:51;101027.03;;;2.73;100.00
24788;BME280;12883;52.662;5.196;2022-12-10T11:47:18;101016.28;;;2.67;100.00
24788;BME280;12883;52.662;5.196;2022-12-10T11:52:40;101026.38;;;2.62;100.00
24788;BME280;12883;52.662;5.196;2022-12-10T12:00:40;101032.84;;;2.67;100.00
24788;BME280;12883;52.662;5.196;2022-12-10T12:14:26;101039.88;;;2.67;100.00
24788;BME280;12883;52.662;5.196;2022-12-10T12:17:07;101047.16;;;2.73;100.00
24788;BME280;12883;52.662;5.196;2022-12-10T12:19:38;101009.50;;;2.37;100.00
24788;BME280;12883;52.662;5.196;2022-12-10T12:22:27;101064.00;;;2.61;100.00
24788;BME280;12883;52.662;5.196;2022-12-10T12:25:00;101041.16;;;2.53;100.00
24788;BME280;12883;52.662;5.196;2022-12-10T12:27:35;101055.19;;;2.52;100.00
24788;BME280;12883;52.662;5.196;2022-12-10T12:30:06;101049.94;;;2.62;100.00
24788;BME280;12883;52.662;5.196;2022-12-10T12:37:40;101059.31;;;2.55;100.00
24788;BME280;12883;52.662;5.196;2022-12-10T12:40:21;101055.25;;;2.43;100.00
24788;BME280;12883;52.662;5.196;2022-12-10T12:43:03;101049.72;;;2.46;100.00
24788;BME280;12883;52.662;5.196;2022-12-10T12:45:44;101041.72;;;2.47;100.00
24788;BME280;12883;52.662;5.196;2022-12-10T12:51:12;101039.00;;;2.39;100.00
24788;BME280;12883;52.662;5.196;2022-12-10T12:53:41;101040.06;;;2.56;100.00
24788;BME280;12883;52.662;5.196;2022-12-10T12:56:32;101036.06;;;2.52;100.00
24788;BME280;12883;52.662;5.196;2022-12-10T13:02:02;101034.25;;;2.52;100.00
24788;BME280;12883;52.662;5.196;2022-12-10T13:04:32;101033.34;;;2.44;100.00
24788;BME280;12883;52.662;5.196;2022-12-10T13:09:47;101033.88;;;2.47;100.00
24788;BME280;12883;52.662;5.196;2022-12-10T13:12:46;101035.94;;;2.53;100.00
24788;BME280;12883;52.662;5.196;2022-12-10T13:15:21;101039.09;;;2.57;100.00
24788;BME280;12883;52.662;5.196;2022-12-10T13:37:28;101038.13;;;2.58;100.00
24788;BME280;12883;52.662;5.196;2022-12-10T13:39:35;101043.06;;;2.61;100.00
24788;BME280;12883;52.662;5.196;2022-12-10T13:49:59;101036.00;;;2.71;100.00
24788;BME280;12883;52.662;5.196;2022-12-10T13:52:54;101028.41;;;2.68;100.00
24788;BME280;12883;52.662;5.196;2022-12-10T13:55:29;101034.53;;;2.59;100.00
24788;BME280;12883;52.662;5.196;2022-12-10T14:06:25;101047.28;;;2.71;100.00
24788;BME280;12883;52.662;5.196;2022-12-10T14:09:04;101048.53;;;2.77;100.00
24788;BME280;12883;52.662;5.196;2022-12-10T14:11:39;101046.50;;;2.61;100.00
24788;BME280;12883;52.662;5.196;2022-12-10T14:14:11;101049.94;;;2.62;100.00
24788;BME280;12883;52.662;5.196;2022-12-10T14:16:40;101050.25;;;2.59;100.00
24788;BME280;12883;52.662;5.196;2022-12-10T14:19:09;101010.19;;;2.39;100.00
24788;BME280;12883;52.662;5.196;2022-12-10T14:21:38;101056.25;;;2.69;100.00
24788;BME280;12883;52.662;5.196;2022-12-10T14:24:25;101053.81;;;2.67;100.00
24788;BME280;12883;52.662;5.196;2022-12-10T14:26:57;101059.59;;;2.61;100.00
24788;BME280;12883;52.662;5.196;2022-12-10T14:29:22;101059.31;;;2.55;100.00
24788;BME280;12883;52.662;5.196;2022-12-10T14:31:49;101019.31;;;2.26;100.00
24788;BME280;12883;52.662;5.196;2022-12-10T14:34:18;101058.53;;;2.54;100.00
24788;BME280;12883;52.662;5.196;2022-12-10T14:36:51;101028.25;;;2.33;100.00
24788;BME280;12883;52.662;5.196;2022-12-10T14:39:28;101078.06;;;2.60;100.00
24788;BME280;12883;52.662;5.196;2022-12-10T14:41:57;101059.75;;;2.50;100.00
24788;BME280;12883;52.662;5.196;2022-12-10T14:44:24;101074.09;;;2.56;100.00
24788;BME280;12883;52.662;5.196;2022-12-10T14:46:50;101070.66;;;2.55;100.00
24788;BME280;12883;52.662;5.196;2022-12-10T14:49:19;101082.91;;;2.55;100.00
24788;BME280;12883;52.662;5.196;2022-12-10T14:51:45;101079.59;;;2.53;100.00
24788;BME280;12883;52.662;5.196;2022-12-10T14:54:27;101084.41;;;2.57;100.00
24788;BME280;12883;52.662;5.196;2022-12-10T14:56:54;101080.56;;;2.52;100.00
24788;BME280;12883;52.662;5.196;2022-12-10T15:02:28;101074.22;;;2.54;100.00
24788;BME280;12883;52.662;5.196;2022-12-10T15:04:55;101028.13;;;2.25;100.00
24788;BME280;12883;52.662;5.196;2022-12-10T15:07:26;101061.03;;;2.46;100.00